Terminal Aerodrome Forecast
Issued by NWS Sioux Falls, SD

Home | Current Version | Previous Version | Text Only | Print | Product List | Glossary On
Versions: 1 2 3 4 5 6 7 8 9 10 11 12 13 14 15 16 17 18 19 20 21 22 23 24 25 26 27
000
FTUS43 KFSD 241744
TAFSUX
TAF
KSUX 241744Z 2418/2518 31013KT 5SM BR OVC006
      TEMPO 2418/2420 3SM -FZDZ BR OVC004
     FM242200 25007KT 6SM BR OVC007
     FM250200 18008KT P6SM SCT009 BKN200
     FM251300 15006KT P6SM BKN200=

USA.gov is the U.S. government's official web portal to all federal, state and local government web resources and services.